sensor_id;sensor_type;location;lat;lon;timestamp;P1;durP1;ratioP1;P2;durP2;ratioP2
36137;SDS011;67787;50.074;21.904;2023-05-10T00:02:00;29.90;;;13.30;;
36137;SDS011;67787;50.074;21.904;2023-05-10T00:04:28;26.30;;;13.10;;
36137;SDS011;67787;50.074;21.904;2023-05-10T00:06:56;30.20;;;15.30;;
36137;SDS011;67787;50.074;21.904;2023-05-10T00:09:24;31.50;;;14.00;;
36137;SDS011;67787;50.074;21.904;2023-05-10T00:11:52;26.60;;;13.00;;
36137;SDS011;67787;50.074;21.904;2023-05-10T00:14:19;28.70;;;13.60;;
36137;SDS011;67787;50.074;21.904;2023-05-10T00:16:47;26.10;;;12.10;;
36137;SDS011;67787;50.074;21.904;2023-05-10T00:19:15;27.90;;;12.90;;
36137;SDS011;67787;50.074;21.904;2023-05-10T00:21:43;28.30;;;13.30;;
36137;SDS011;67787;50.074;21.904;2023-05-10T00:24:11;32.30;;;14.50;;
36137;SDS011;67787;50.074;21.904;2023-05-10T00:26:38;30.30;;;13.70;;
36137;SDS011;67787;50.074;21.904;2023-05-10T00:29:06;29.80;;;13.00;;
36137;SDS011;67787;50.074;21.904;2023-05-10T00:31:34;26.70;;;12.90;;
36137;SDS011;67787;50.074;21.904;2023-05-10T00:34:02;26.30;;;12.00;;
36137;SDS011;67787;50.074;21.904;2023-05-10T00:36:29;28.20;;;13.40;;
36137;SDS011;67787;50.074;21.904;2023-05-10T00:38:58;29.60;;;13.30;;
36137;SDS011;67787;50.074;21.904;2023-05-10T00:41:26;26.90;;;13.10;;
36137;SDS011;67787;50.074;21.904;2023-05-10T00:43:54;29.80;;;13.00;;
36137;SDS011;67787;50.074;21.904;2023-05-10T00:46:22;27.10;;;12.50;;
36137;SDS011;67787;50.074;21.904;2023-05-10T00:48:50;26.50;;;12.70;;
36137;SDS011;67787;50.074;21.904;2023-05-10T00:51:18;27.10;;;13.50;;
36137;SDS011;67787;50.074;21.904;2023-05-10T00:53:45;28.90;;;13.30;;
36137;SDS011;67787;50.074;21.904;2023-05-10T00:56:14;28.70;;;12.90;;
36137;SDS011;67787;50.074;21.904;2023-05-10T00:58:42;27.20;;;12.20;;
36137;SDS011;67787;50.074;21.904;2023-05-10T01:01:10;26.10;;;12.00;;
36137;SDS011;67787;50.074;21.904;2023-05-10T01:03:39;27.90;;;11.90;;
36137;SDS011;67787;50.074;21.904;2023-05-10T01:06:07;24.90;;;12.30;;
36137;SDS011;67787;50.074;21.904;2023-05-10T01:08:37;25.80;;;12.80;;
36137;SDS011;67787;50.074;21.904;2023-05-10T01:11:05;26.60;;;12.50;;
36137;SDS011;67787;50.074;21.904;2023-05-10T01:13:33;28.40;;;13.10;;
36137;SDS011;67787;50.074;21.904;2023-05-10T01:16:04;28.50;;;11.40;;
36137;SDS011;67787;50.074;21.904;2023-05-10T01:18:38;25.50;;;11.40;;
36137;SDS011;67787;50.074;21.904;2023-05-10T01:21:18;24.40;;;11.60;;
36137;SDS011;67787;50.074;21.904;2023-05-10T01:32:44;26.50;;;11.60;;
36137;SDS011;67787;50.074;21.904;2023-05-10T01:38:04;24.90;;;11.90;;
36137;SDS011;67787;50.074;21.904;2023-05-10T01:40:37;25.50;;;12.50;;
36137;SDS011;67787;50.074;21.904;2023-05-10T01:43:11;24.10;;;10.90;;
36137;SDS011;67787;50.074;21.904;2023-05-10T01:45:57;26.20;;;11.60;;
36137;SDS011;67787;50.074;21.904;2023-05-10T01:48:32;23.80;;;10.10;;
36137;SDS011;67787;50.074;21.904;2023-05-10T01:51:01;23.40;;;10.50;;
36137;SDS011;67787;50.074;21.904;2023-05-10T01:53:29;23.80;;;10.30;;
36137;SDS011;67787;50.074;21.904;2023-05-10T01:56:00;23.20;;;9.60;;
36137;SDS011;67787;50.074;21.904;2023-05-10T01:58:31;24.80;;;10.20;;
36137;SDS011;67787;50.074;21.904;2023-05-10T02:01:01;22.60;;;9.70;;
36137;SDS011;67787;50.074;21.904;2023-05-10T02:03:31;21.80;;;10.30;;
36137;SDS011;67787;50.074;21.904;2023-05-10T02:06:01;26.80;;;10.20;;
36137;SDS011;67787;50.074;21.904;2023-05-10T02:08:30;21.70;;;9.70;;
36137;SDS011;67787;50.074;21.904;2023-05-10T02:11:00;24.90;;;10.30;;
36137;SDS011;67787;50.074;21.904;2023-05-10T02:13:29;24.50;;;9.60;;
36137;SDS011;67787;50.074;21.904;2023-05-10T02:16:01;21.80;;;9.20;;
36137;SDS011;67787;50.074;21.904;2023-05-10T02:18:33;24.30;;;9.70;;
36137;SDS011;67787;50.074;21.904;2023-05-10T02:21:04;24.70;;;9.10;;
36137;SDS011;67787;50.074;21.904;2023-05-10T02:23:32;24.70;;;9.60;;
36137;SDS011;67787;50.074;21.904;2023-05-10T02:26:01;21.60;;;8.60;;
36137;SDS011;67787;50.074;21.904;2023-05-10T02:28:30;22.70;;;10.00;;
36137;SDS011;67787;50.074;21.904;2023-05-10T02:31:00;23.40;;;9.50;;
36137;SDS011;67787;50.074;21.904;2023-05-10T02:33:28;23.20;;;8.80;;
36137;SDS011;67787;50.074;21.904;2023-05-10T02:35:59;24.40;;;9.10;;
36137;SDS011;67787;50.074;21.904;2023-05-10T02:38:29;23.90;;;10.00;;
36137;SDS011;67787;50.074;21.904;2023-05-10T02:40:59;22.50;;;9.10;;
36137;SDS011;67787;50.074;21.904;2023-05-10T02:43:28;26.70;;;10.10;;
36137;SDS011;67787;50.074;21.904;2023-05-10T02:45:58;21.70;;;9.20;;
36137;SDS011;67787;50.074;21.904;2023-05-10T02:48:26;20.20;;;9.40;;
36137;SDS011;67787;50.074;21.904;2023-05-10T02:50:54;28.70;;;9.30;;
36137;SDS011;67787;50.074;21.904;2023-05-10T02:53:31;23.00;;;9.40;;
36137;SDS011;67787;50.074;21.904;2023-05-10T02:56:04;23.60;;;9.90;;
36137;SDS011;67787;50.074;21.904;2023-05-10T02:58:35;19.80;;;8.40;;
36137;SDS011;67787;50.074;21.904;2023-05-10T03:01:03;22.50;;;8.90;;
36137;SDS011;67787;50.074;21.904;2023-05-10T03:03:31;21.50;;;8.90;;
36137;SDS011;67787;50.074;21.904;2023-05-10T03:05:59;21.10;;;9.60;;
36137;SDS011;67787;50.074;21.904;2023-05-10T03:08:27;20.10;;;8.70;;
36137;SDS011;67787;50.074;21.904;2023-05-10T03:11:09;18.80;;;8.60;;
36137;SDS011;67787;50.074;21.904;2023-05-10T03:16:47;22.10;;;9.70;;
36137;SDS011;67787;50.074;21.904;2023-05-10T03:19:26;21.20;;;9.40;;
36137;SDS011;67787;50.074;21.904;2023-05-10T03:21:59;21.00;;;9.10;;
36137;SDS011;67787;50.074;21.904;2023-05-10T03:24:31;19.90;;;8.30;;
36137;SDS011;67787;50.074;21.904;2023-05-10T03:27:04;21.60;;;8.60;;
36137;SDS011;67787;50.074;21.904;2023-05-10T03:29:51;19.90;;;8.60;;
36137;SDS011;67787;50.074;21.904;2023-05-10T03:32:21;22.20;;;9.60;;
36137;SDS011;67787;50.074;21.904;2023-05-10T03:34:50;25.80;;;9.80;;
36137;SDS011;67787;50.074;21.904;2023-05-10T03:37:18;23.10;;;9.20;;
36137;SDS011;67787;50.074;21.904;2023-05-10T03:39:46;21.00;;;9.40;;
36137;SDS011;67787;50.074;21.904;2023-05-10T03:42:13;23.00;;;9.10;;
36137;SDS011;67787;50.074;21.904;2023-05-10T03:44:41;20.60;;;9.70;;
36137;SDS011;67787;50.074;21.904;2023-05-10T03:47:09;26.40;;;10.60;;
36137;SDS011;67787;50.074;21.904;2023-05-10T03:49:37;23.20;;;9.60;;
36137;SDS011;67787;50.074;21.904;2023-05-10T03:52:05;21.00;;;9.90;;
36137;SDS011;67787;50.074;21.904;2023-05-10T03:54:33;23.30;;;9.20;;
36137;SDS011;67787;50.074;21.904;2023-05-10T03:57:01;21.70;;;9.70;;
36137;SDS011;67787;50.074;21.904;2023-05-10T03:59:30;20.70;;;9.20;;
36137;SDS011;67787;50.074;21.904;2023-05-10T04:01:58;20.40;;;8.80;;
36137;SDS011;67787;50.074;21.904;2023-05-10T04:04:26;20.60;;;9.20;;
36137;SDS011;67787;50.074;21.904;2023-05-10T04:06:54;24.70;;;9.80;;
36137;SDS011;67787;50.074;21.904;2023-05-10T04:09:22;25.50;;;10.20;;
36137;SDS011;67787;50.074;21.904;2023-05-10T04:11:50;21.20;;;9.60;;
36137;SDS011;67787;50.074;21.904;2023-05-10T04:14:17;27.10;;;9.90;;
36137;SDS011;67787;50.074;21.904;2023-05-10T04:16:45;19.50;;;8.80;;
36137;SDS011;67787;50.074;21.904;2023-05-10T04:19:13;21.60;;;9.30;;
36137;SDS011;67787;50.074;21.904;2023-05-10T04:21:41;20.30;;;9.10;;
36137;SDS011;67787;50.074;21.904;2023-05-10T04:24:08;23.60;;;9.60;;
36137;SDS011;67787;50.074;21.904;2023-05-10T04:26:36;23.10;;;9.20;;
36137;SDS011;67787;50.074;21.904;2023-05-10T04:29:04;22.40;;;9.70;;
36137;SDS011;67787;50.074;21.904;2023-05-10T04:31:32;22.80;;;9.90;;
36137;SDS011;67787;50.074;21.904;2023-05-10T04:34:17;21.30;;;9.70;;
36137;SDS011;67787;50.074;21.904;2023-05-10T04:36:46;24.60;;;9.40;;
36137;SDS011;67787;50.074;21.904;2023-05-10T04:39:13;21.60;;;10.20;;
36137;SDS011;67787;50.074;21.904;2023-05-10T04:41:41;23.30;;;10.30;;
36137;SDS011;67787;50.074;21.904;2023-05-10T04:44:09;21.70;;;9.90;;
36137;SDS011;67787;50.074;21.904;2023-05-10T04:46:37;22.20;;;10.70;;
36137;SDS011;67787;50.074;21.904;2023-05-10T04:49:04;24.30;;;10.60;;
36137;SDS011;67787;50.074;21.904;2023-05-10T04:51:33;24.00;;;10.10;;
36137;SDS011;67787;50.074;21.904;2023-05-10T04:54:00;23.20;;;10.30;;
36137;SDS011;67787;50.074;21.904;2023-05-10T04:56:33;22.10;;;9.40;;
36137;SDS011;67787;50.074;21.904;2023-05-10T04:59:01;24.90;;;10.20;;
36137;SDS011;67787;50.074;21.904;2023-05-10T05:01:29;20.20;;;9.40;;
36137;SDS011;67787;50.074;21.904;2023-05-10T05:03:57;22.60;;;9.90;;
36137;SDS011;67787;50.074;21.904;2023-05-10T05:06:25;24.90;;;9.30;;
36137;SDS011;67787;50.074;21.904;2023-05-10T05:08:54;20.30;;;9.10;;
36137;SDS011;67787;50.074;21.904;2023-05-10T05:14:19;19.70;;;8.70;;
36137;SDS011;67787;50.074;21.904;2023-05-10T05:16:52;20.90;;;9.30;;
36137;SDS011;67787;50.074;21.904;2023-05-10T05:19:20;24.70;;;9.10;;
36137;SDS011;67787;50.074;21.904;2023-05-10T05:21:51;20.40;;;8.80;;
36137;SDS011;67787;50.074;21.904;2023-05-10T05:24:24;23.50;;;8.80;;
36137;SDS011;67787;50.074;21.904;2023-05-10T05:27:00;21.90;;;9.10;;
36137;SDS011;67787;50.074;21.904;2023-05-10T05:29:31;26.20;;;9.40;;
36137;SDS011;67787;50.074;21.904;2023-05-10T05:32:06;25.40;;;10.00;;
36137;SDS011;67787;50.074;21.904;2023-05-10T05:34:48;22.30;;;9.10;;
36137;SDS011;67787;50.074;21.904;2023-05-10T05:37:20;25.00;;;10.00;;
36137;SDS011;67787;50.074;21.904;2023-05-10T05:39:52;20.20;;;10.10;;
36137;SDS011;67787;50.074;21.904;2023-05-10T05:42:22;18.00;;;8.00;;
36137;SDS011;67787;50.074;21.904;2023-05-10T05:44:50;21.40;;;9.90;;
36137;SDS011;67787;50.074;21.904;2023-05-10T05:47:18;21.90;;;9.40;;
36137;SDS011;67787;50.074;21.904;2023-05-10T05:49:46;22.80;;;10.00;;
36137;SDS011;67787;50.074;21.904;2023-05-10T05:52:14;22.70;;;8.90;;
36137;SDS011;67787;50.074;21.904;2023-05-10T05:54:51;23.80;;;9.40;;
36137;SDS011;67787;50.074;21.904;2023-05-10T05:57:34;24.10;;;10.00;;
36137;SDS011;67787;50.074;21.904;2023-05-10T06:00:11;23.20;;;9.40;;
36137;SDS011;67787;50.074;21.904;2023-05-10T06:02:51;25.30;;;8.90;;
36137;SDS011;67787;50.074;21.904;2023-05-10T06:05:25;22.40;;;10.00;;
36137;SDS011;67787;50.074;21.904;2023-05-10T06:07:56;25.60;;;9.20;;
36137;SDS011;67787;50.074;21.904;2023-05-10T06:10:27;18.40;;;8.50;;
36137;SDS011;67787;50.074;21.904;2023-05-10T06:13:01;24.20;;;8.30;;
36137;SDS011;67787;50.074;21.904;2023-05-10T06:15:39;19.00;;;8.00;;
36137;SDS011;67787;50.074;21.904;2023-05-10T06:18:21;20.10;;;7.80;;
36137;SDS011;67787;50.074;21.904;2023-05-10T06:20:54;19.20;;;8.80;;
36137;SDS011;67787;50.074;21.904;2023-05-10T06:23:31;17.40;;;7.10;;
36137;SDS011;67787;50.074;21.904;2023-05-10T06:26:01;17.80;;;7.20;;
36137;SDS011;67787;50.074;21.904;2023-05-10T06:28:30;17.60;;;8.30;;
36137;SDS011;67787;50.074;21.904;2023-05-10T06:31:02;16.40;;;7.00;;
36137;SDS011;67787;50.074;21.904;2023-05-10T06:33:30;17.50;;;6.80;;
36137;SDS011;67787;50.074;21.904;2023-05-10T06:35:59;22.70;;;7.80;;
36137;SDS011;67787;50.074;21.904;2023-05-10T06:38:29;16.30;;;6.80;;
36137;SDS011;67787;50.074;21.904;2023-05-10T06:41:00;11.90;;;5.00;;
36137;SDS011;67787;50.074;21.904;2023-05-10T06:43:31;13.10;;;5.70;;
36137;SDS011;67787;50.074;21.904;2023-05-10T06:46:03;12.60;;;5.40;;
36137;SDS011;67787;50.074;21.904;2023-05-10T06:48:30;14.80;;;5.80;;
36137;SDS011;67787;50.074;21.904;2023-05-10T06:50:58;14.80;;;5.40;;
36137;SDS011;67787;50.074;21.904;2023-05-10T06:53:26;12.70;;;5.40;;
36137;SDS011;67787;50.074;21.904;2023-05-10T06:55:55;13.70;;;5.10;;
36137;SDS011;67787;50.074;21.904;2023-05-10T07:01:01;19.90;;;6.10;;
36137;SDS011;67787;50.074;21.904;2023-05-10T07:03:30;13.10;;;5.60;;
36137;SDS011;67787;50.074;21.904;2023-05-10T07:06:04;17.70;;;5.90;;
36137;SDS011;67787;50.074;21.904;2023-05-10T07:08:57;16.20;;;5.90;;
36137;SDS011;67787;50.074;21.904;2023-05-10T07:11:26;13.20;;;5.10;;
36137;SDS011;67787;50.074;21.904;2023-05-10T07:13:54;12.00;;;5.00;;
36137;SDS011;67787;50.074;21.904;2023-05-10T07:16:22;11.70;;;5.00;;
36137;SDS011;67787;50.074;21.904;2023-05-10T07:18:53;11.30;;;5.20;;
36137;SDS011;67787;50.074;21.904;2023-05-10T07:21:21;13.50;;;4.40;;
36137;SDS011;67787;50.074;21.904;2023-05-10T07:23:51;9.70;;;4.70;;
36137;SDS011;67787;50.074;21.904;2023-05-10T07:26:19;11.30;;;4.60;;
36137;SDS011;67787;50.074;21.904;2023-05-10T07:28:48;12.20;;;5.10;;
36137;SDS011;67787;50.074;21.904;2023-05-10T07:31:16;11.80;;;4.90;;
36137;SDS011;67787;50.074;21.904;2023-05-10T07:33:44;11.50;;;5.10;;
36137;SDS011;67787;50.074;21.904;2023-05-10T07:36:18;13.20;;;5.60;;
36137;SDS011;67787;50.074;21.904;2023-05-10T07:38:54;11.20;;;4.70;;
36137;SDS011;67787;50.074;21.904;2023-05-10T07:41:28;10.80;;;5.10;;
36137;SDS011;67787;50.074;21.904;2023-05-10T07:44:07;9.80;;;4.30;;
36137;SDS011;67787;50.074;21.904;2023-05-10T07:46:36;14.40;;;5.30;;
36137;SDS011;67787;50.074;21.904;2023-05-10T07:49:11;14.90;;;4.90;;
36137;SDS011;67787;50.074;21.904;2023-05-10T07:51:45;11.50;;;4.70;;
36137;SDS011;67787;50.074;21.904;2023-05-10T07:54:30;6.80;;;3.70;;
36137;SDS011;67787;50.074;21.904;2023-05-10T07:59:32;14.40;;;5.10;;
36137;SDS011;67787;50.074;21.904;2023-05-10T08:02:02;11.40;;;5.00;;
36137;SDS011;67787;50.074;21.904;2023-05-10T08:04:35;8.20;;;4.20;;
36137;SDS011;67787;50.074;21.904;2023-05-10T08:07:49;10.30;;;3.90;;
36137;SDS011;67787;50.074;21.904;2023-05-10T08:10:25;10.10;;;3.70;;
36137;SDS011;67787;50.074;21.904;2023-05-10T08:12:55;8.00;;;3.50;;
36137;SDS011;67787;50.074;21.904;2023-05-10T08:15:32;11.00;;;3.50;;
36137;SDS011;67787;50.074;21.904;2023-05-10T08:18:16;7.20;;;3.30;;
36137;SDS011;67787;50.074;21.904;2023-05-10T08:20:50;7.10;;;3.20;;
36137;SDS011;67787;50.074;21.904;2023-05-10T08:26:10;11.00;;;3.60;;
36137;SDS011;67787;50.074;21.904;2023-05-10T08:28:43;9.80;;;3.70;;
36137;SDS011;67787;50.074;21.904;2023-05-10T08:31:11;8.20;;;4.00;;
36137;SDS011;67787;50.074;21.904;2023-05-10T08:33:39;9.40;;;4.40;;
36137;SDS011;67787;50.074;21.904;2023-05-10T08:36:34;12.80;;;4.30;;
36137;SDS011;67787;50.074;21.904;2023-05-10T08:39:06;9.00;;;4.30;;
36137;SDS011;67787;50.074;21.904;2023-05-10T08:41:57;9.60;;;3.80;;
36137;SDS011;67787;50.074;21.904;2023-05-10T08:44:36;6.10;;;3.80;;
36137;SDS011;67787;50.074;21.904;2023-05-10T08:47:10;5.50;;;3.50;;
36137;SDS011;67787;50.074;21.904;2023-05-10T08:49:52;9.40;;;3.60;;
36137;SDS011;67787;50.074;21.904;2023-05-10T08:52:31;8.10;;;3.60;;
36137;SDS011;67787;50.074;21.904;2023-05-10T08:55:04;7.70;;;3.60;;
36137;SDS011;67787;50.074;21.904;2023-05-10T08:57:32;10.70;;;3.80;;
36137;SDS011;67787;50.074;21.904;2023-05-10T09:00:01;12.50;;;4.00;;
36137;SDS011;67787;50.074;21.904;2023-05-10T09:02:30;9.20;;;3.70;;
36137;SDS011;67787;50.074;21.904;2023-05-10T09:04:58;7.00;;;3.20;;
36137;SDS011;67787;50.074;21.904;2023-05-10T09:07:26;6.90;;;3.60;;
36137;SDS011;67787;50.074;21.904;2023-05-10T09:09:55;8.60;;;3.60;;
36137;SDS011;67787;50.074;21.904;2023-05-10T09:12:29;7.40;;;3.60;;
36137;SDS011;67787;50.074;21.904;2023-05-10T09:14:57;10.80;;;3.90;;
36137;SDS011;67787;50.074;21.904;2023-05-10T09:17:34;8.30;;;3.20;;
36137;SDS011;67787;50.074;21.904;2023-05-10T09:20:03;7.30;;;3.90;;
36137;SDS011;67787;50.074;21.904;2023-05-10T09:22:53;7.40;;;3.10;;
36137;SDS011;67787;50.074;21.904;2023-05-10T09:25:34;7.70;;;3.50;;
36137;SDS011;67787;50.074;21.904;2023-05-10T09:28:05;6.00;;;3.30;;
36137;SDS011;67787;50.074;21.904;2023-05-10T09:30:35;11.90;;;3.20;;
36137;SDS011;67787;50.074;21.904;2023-05-10T09:33:06;8.50;;;3.30;;
36137;SDS011;67787;50.074;21.904;2023-05-10T09:35:40;7.90;;;3.80;;
36137;SDS011;67787;50.074;21.904;2023-05-10T09:38:19;10.10;;;4.10;;
36137;SDS011;67787;50.074;21.904;2023-05-10T09:40:53;8.90;;;4.00;;
36137;SDS011;67787;50.074;21.904;2023-05-10T09:43:27;7.10;;;3.80;;
36137;SDS011;67787;50.074;21.904;2023-05-10T09:46:10;9.00;;;3.60;;
36137;SDS011;67787;50.074;21.904;2023-05-10T09:48:41;8.90;;;3.80;;
36137;SDS011;67787;50.074;21.904;2023-05-10T09:51:14;7.90;;;3.70;;
36137;SDS011;67787;50.074;21.904;2023-05-10T09:54:15;7.30;;;3.40;;
36137;SDS011;67787;50.074;21.904;2023-05-10T09:56:46;9.10;;;4.10;;
36137;SDS011;67787;50.074;21.904;2023-05-10T09:59:14;8.20;;;3.40;;
36137;SDS011;67787;50.074;21.904;2023-05-10T10:01:53;8.50;;;3.60;;
36137;SDS011;67787;50.074;21.904;2023-05-10T10:04:27;6.20;;;3.20;;
36137;SDS011;67787;50.074;21.904;2023-05-10T10:07:04;10.70;;;4.10;;
36137;SDS011;67787;50.074;21.904;2023-05-10T10:09:39;8.60;;;3.90;;
36137;SDS011;67787;50.074;21.904;2023-05-10T10:12:11;6.80;;;3.30;;
36137;SDS011;67787;50.074;21.904;2023-05-10T10:14:47;8.00;;;3.60;;
36137;SDS011;67787;50.074;21.904;2023-05-10T10:17:22;8.90;;;3.70;;
36137;SDS011;67787;50.074;21.904;2023-05-10T10:19:55;7.20;;;3.30;;
36137;SDS011;67787;50.074;21.904;2023-05-10T10:22:26;7.60;;;3.50;;
36137;SDS011;67787;50.074;21.904;2023-05-10T10:24:56;8.00;;;3.40;;
36137;SDS011;67787;50.074;21.904;2023-05-10T10:27:36;6.30;;;3.60;;
36137;SDS011;67787;50.074;21.904;2023-05-10T10:30:31;7.20;;;3.40;;
36137;SDS011;67787;50.074;21.904;2023-05-10T10:33:10;5.00;;;3.20;;
36137;SDS011;67787;50.074;21.904;2023-05-10T10:36:02;8.00;;;3.40;;
36137;SDS011;67787;50.074;21.904;2023-05-10T10:41:10;7.00;;;4.00;;
36137;SDS011;67787;50.074;21.904;2023-05-10T10:44:22;11.00;;;3.60;;
36137;SDS011;67787;50.074;21.904;2023-05-10T10:47:02;7.00;;;3.10;;
36137;SDS011;67787;50.074;21.904;2023-05-10T10:50:06;9.30;;;3.60;;
36137;SDS011;67787;50.074;21.904;2023-05-10T10:52:39;8.10;;;3.30;;
36137;SDS011;67787;50.074;21.904;2023-05-10T10:55:17;10.70;;;3.10;;
36137;SDS011;67787;50.074;21.904;2023-05-10T10:58:02;9.10;;;3.40;;
36137;SDS011;67787;50.074;21.904;2023-05-10T11:01:19;6.20;;;3.20;;
36137;SDS011;67787;50.074;21.904;2023-05-10T11:06:47;6.80;;;3.10;;
36137;SDS011;67787;50.074;21.904;2023-05-10T11:09:39;7.10;;;3.60;;
36137;SDS011;67787;50.074;21.904;2023-05-10T11:12:17;8.20;;;3.60;;
36137;SDS011;67787;50.074;21.904;2023-05-10T11:14:55;4.90;;;3.10;;
36137;SDS011;67787;50.074;21.904;2023-05-10T11:17:31;8.40;;;3.50;;
36137;SDS011;67787;50.074;21.904;2023-05-10T11:20:06;7.10;;;3.60;;
36137;SDS011;67787;50.074;21.904;2023-05-10T11:22:52;10.40;;;3.40;;
36137;SDS011;67787;50.074;21.904;2023-05-10T11:25:32;10.10;;;3.30;;
36137;SDS011;67787;50.074;21.904;2023-05-10T11:28:23;6.60;;;3.30;;
36137;SDS011;67787;50.074;21.904;2023-05-10T11:30:58;7.50;;;3.20;;
36137;SDS011;67787;50.074;21.904;2023-05-10T11:33:26;5.50;;;3.40;;
36137;SDS011;67787;50.074;21.904;2023-05-10T11:35:54;8.90;;;3.50;;
36137;SDS011;67787;50.074;21.904;2023-05-10T11:38:33;8.20;;;3.30;;
36137;SDS011;67787;50.074;21.904;2023-05-10T11:42:42;9.30;;;3.90;;
36137;SDS011;67787;50.074;21.904;2023-05-10T11:45:16;10.90;;;3.30;;
36137;SDS011;67787;50.074;21.904;2023-05-10T11:47:49;4.90;;;2.70;;
36137;SDS011;67787;50.074;21.904;2023-05-10T11:50:17;5.20;;;2.60;;
36137;SDS011;67787;50.074;21.904;2023-05-10T11:52:52;4.60;;;2.60;;
36137;SDS011;67787;50.074;21.904;2023-05-10T11:55:21;6.20;;;2.90;;
36137;SDS011;67787;50.074;21.904;2023-05-10T11:57:59;5.00;;;3.10;;
36137;SDS011;67787;50.074;21.904;2023-05-10T12:00:49;6.80;;;3.10;;
36137;SDS011;67787;50.074;21.904;2023-05-10T12:03:21;5.40;;;2.80;;
36137;SDS011;67787;50.074;21.904;2023-05-10T12:05:56;8.80;;;3.00;;
36137;SDS011;67787;50.074;21.904;2023-05-10T12:08:26;6.70;;;2.90;;
36137;SDS011;67787;50.074;21.904;2023-05-10T12:11:10;6.20;;;2.80;;
36137;SDS011;67787;50.074;21.904;2023-05-10T12:13:48;4.10;;;2.70;;
36137;SDS011;67787;50.074;21.904;2023-05-10T12:16:23;10.40;;;2.80;;
36137;SDS011;67787;50.074;21.904;2023-05-10T12:18:53;4.40;;;2.60;;
36137;SDS011;67787;50.074;21.904;2023-05-10T12:21:27;4.10;;;2.90;;
36137;SDS011;67787;50.074;21.904;2023-05-10T12:24:02;5.50;;;2.90;;
36137;SDS011;67787;50.074;21.904;2023-05-10T12:26:32;8.90;;;3.50;;
36137;SDS011;67787;50.074;21.904;2023-05-10T12:29:17;7.90;;;2.90;;
36137;SDS011;67787;50.074;21.904;2023-05-10T12:34:36;8.50;;;3.60;;
36137;SDS011;67787;50.074;21.904;2023-05-10T12:37:06;6.30;;;3.50;;
36137;SDS011;67787;50.074;21.904;2023-05-10T12:39:43;10.60;;;3.30;;
36137;SDS011;67787;50.074;21.904;2023-05-10T12:42:14;8.60;;;3.50;;
36137;SDS011;67787;50.074;21.904;2023-05-10T12:44:42;7.70;;;3.70;;
36137;SDS011;67787;50.074;21.904;2023-05-10T12:47:18;11.70;;;3.90;;
36137;SDS011;67787;50.074;21.904;2023-05-10T12:49:46;11.30;;;3.20;;
36137;SDS011;67787;50.074;21.904;2023-05-10T12:52:16;11.20;;;3.50;;
36137;SDS011;67787;50.074;21.904;2023-05-10T12:54:47;8.20;;;3.20;;
36137;SDS011;67787;50.074;21.904;2023-05-10T12:57:16;8.70;;;3.50;;
36137;SDS011;67787;50.074;21.904;2023-05-10T12:59:46;8.00;;;3.20;;
36137;SDS011;67787;50.074;21.904;2023-05-10T13:02:21;6.40;;;3.30;;
36137;SDS011;67787;50.074;21.904;2023-05-10T13:04:50;8.20;;;3.30;;
36137;SDS011;67787;50.074;21.904;2023-05-10T13:07:24;5.60;;;3.20;;
36137;SDS011;67787;50.074;21.904;2023-05-10T13:09:56;12.30;;;3.40;;
36137;SDS011;67787;50.074;21.904;2023-05-10T13:12:29;9.80;;;3.40;;
36137;SDS011;67787;50.074;21.904;2023-05-10T13:15:00;6.90;;;3.50;;
36137;SDS011;67787;50.074;21.904;2023-05-10T13:17:28;9.50;;;3.30;;
36137;SDS011;67787;50.074;21.904;2023-05-10T13:20:03;7.20;;;3.10;;
36137;SDS011;67787;50.074;21.904;2023-05-10T13:22:39;5.40;;;3.10;;
36137;SDS011;67787;50.074;21.904;2023-05-10T13:25:11;9.00;;;3.20;;
36137;SDS011;67787;50.074;21.904;2023-05-10T13:27:40;9.20;;;3.70;;
36137;SDS011;67787;50.074;21.904;2023-05-10T13:30:08;12.10;;;3.80;;
36137;SDS011;67787;50.074;21.904;2023-05-10T13:32:37;7.00;;;3.70;;
36137;SDS011;67787;50.074;21.904;2023-05-10T13:35:06;10.10;;;3.30;;
36137;SDS011;67787;50.074;21.904;2023-05-10T13:37:38;8.40;;;3.30;;
36137;SDS011;67787;50.074;21.904;2023-05-10T13:40:06;9.00;;;3.40;;
36137;SDS011;67787;50.074;21.904;2023-05-10T13:42:43;6.10;;;3.40;;
36137;SDS011;67787;50.074;21.904;2023-05-10T13:45:12;8.00;;;3.20;;
36137;SDS011;67787;50.074;21.904;2023-05-10T13:47:40;7.70;;;3.10;;
36137;SDS011;67787;50.074;21.904;2023-05-10T13:50:09;7.80;;;2.90;;
36137;SDS011;67787;50.074;21.904;2023-05-10T13:52:37;7.50;;;3.40;;
36137;SDS011;67787;50.074;21.904;2023-05-10T13:55:04;6.20;;;3.10;;
36137;SDS011;67787;50.074;21.904;2023-05-10T13:57:32;6.40;;;3.10;;
36137;SDS011;67787;50.074;21.904;2023-05-10T14:00:03;9.40;;;3.30;;
36137;SDS011;67787;50.074;21.904;2023-05-10T14:02:32;6.30;;;3.20;;
36137;SDS011;67787;50.074;21.904;2023-05-10T14:05:00;5.60;;;3.20;;
36137;SDS011;67787;50.074;21.904;2023-05-10T14:07:28;7.70;;;2.90;;
36137;SDS011;67787;50.074;21.904;2023-05-10T14:09:56;5.70;;;3.00;;
36137;SDS011;67787;50.074;21.904;2023-05-10T14:12:24;9.50;;;3.40;;
36137;SDS011;67787;50.074;21.904;2023-05-10T14:14:53;6.70;;;2.80;;
36137;SDS011;67787;50.074;21.904;2023-05-10T14:17:20;6.30;;;3.10;;
36137;SDS011;67787;50.074;21.904;2023-05-10T14:19:49;9.90;;;2.90;;
36137;SDS011;67787;50.074;21.904;2023-05-10T14:22:17;7.80;;;2.80;;
36137;SDS011;67787;50.074;21.904;2023-05-10T14:24:45;6.50;;;3.30;;
36137;SDS011;67787;50.074;21.904;2023-05-10T14:27:14;9.90;;;3.20;;
36137;SDS011;67787;50.074;21.904;2023-05-10T14:29:43;10.40;;;3.00;;
36137;SDS011;67787;50.074;21.904;2023-05-10T14:32:11;8.50;;;3.10;;
36137;SDS011;67787;50.074;21.904;2023-05-10T14:34:39;6.70;;;3.10;;
36137;SDS011;67787;50.074;21.904;2023-05-10T14:37:06;6.70;;;3.30;;
36137;SDS011;67787;50.074;21.904;2023-05-10T14:39:34;12.50;;;3.30;;
36137;SDS011;67787;50.074;21.904;2023-05-10T14:42:03;7.70;;;3.30;;
36137;SDS011;67787;50.074;21.904;2023-05-10T14:44:32;7.60;;;3.80;;
36137;SDS011;67787;50.074;21.904;2023-05-10T14:47:00;5.80;;;2.80;;
36137;SDS011;67787;50.074;21.904;2023-05-10T14:49:28;6.10;;;2.70;;
36137;SDS011;67787;50.074;21.904;2023-05-10T14:51:56;7.20;;;2.90;;
36137;SDS011;67787;50.074;21.904;2023-05-10T14:54:29;9.80;;;2.90;;
36137;SDS011;67787;50.074;21.904;2023-05-10T14:57:04;8.00;;;2.70;;
36137;SDS011;67787;50.074;21.904;2023-05-10T14:59:35;8.30;;;3.00;;
36137;SDS011;67787;50.074;21.904;2023-05-10T15:02:03;9.20;;;3.10;;
36137;SDS011;67787;50.074;21.904;2023-05-10T15:04:36;11.20;;;3.20;;
36137;SDS011;67787;50.074;21.904;2023-05-10T15:07:05;12.70;;;3.00;;
36137;SDS011;67787;50.074;21.904;2023-05-10T15:09:33;8.10;;;3.10;;
36137;SDS011;67787;50.074;21.904;2023-05-10T15:12:04;8.40;;;3.00;;
36137;SDS011;67787;50.074;21.904;2023-05-10T15:14:32;9.00;;;3.30;;
36137;SDS011;67787;50.074;21.904;2023-05-10T15:17:00;6.80;;;2.60;;
36137;SDS011;67787;50.074;21.904;2023-05-10T15:19:34;7.40;;;3.30;;
36137;SDS011;67787;50.074;21.904;2023-05-10T15:22:07;5.00;;;2.70;;
36137;SDS011;67787;50.074;21.904;2023-05-10T15:24:35;5.40;;;2.80;;
36137;SDS011;67787;50.074;21.904;2023-05-10T15:27:12;6.40;;;3.00;;
36137;SDS011;67787;50.074;21.904;2023-05-10T15:29:43;7.10;;;2.90;;